createdAt,value
2023-08-15T00:00:02.806Z,16.95
2023-08-15T00:02:32.119Z,16.95
2023-08-15T00:05:00.220Z,16.96
2023-08-15T00:07:28.125Z,16.93
2023-08-15T00:09:56.205Z,16.88
2023-08-15T00:12:24.162Z,16.84
2023-08-15T00:14:52.137Z,16.82
2023-08-15T00:17:20.170Z,16.79
2023-08-15T00:19:50.022Z,16.75
2023-08-15T00:22:18.773Z,16.70
2023-08-15T00:24:46.784Z,16.66
2023-08-15T00:27:14.648Z,16.64
2023-08-15T00:29:42.498Z,16.60
2023-08-15T00:32:10.452Z,16.58
2023-08-15T00:34:38.373Z,16.52
2023-08-15T00:37:07.696Z,16.51
2023-08-15T00:39:35.608Z,16.47
2023-08-15T00:42:03.562Z,16.41
2023-08-15T00:44:31.493Z,16.35
2023-08-15T00:46:59.691Z,16.30
2023-08-15T00:49:27.704Z,16.24
2023-08-15T00:51:55.742Z,16.25
2023-08-15T00:54:25.136Z,16.23
2023-08-15T00:56:53.188Z,16.20
2023-08-15T00:59:21.939Z,16.18
2023-08-15T01:01:50.492Z,16.15
2023-08-15T01:04:18.927Z,16.13
2023-08-15T01:06:46.875Z,16.13
2023-08-15T01:09:14.777Z,16.10
2023-08-15T01:11:53.290Z,16.08
2023-08-15T01:14:24.338Z,16.07
2023-08-15T01:16:54.489Z,16.04
2023-08-15T01:19:32.139Z,16.01
2023-08-15T01:22:01.928Z,15.98
2023-08-15T01:24:32.183Z,15.95
2023-08-15T01:27:00.181Z,15.94
2023-08-15T01:29:28.161Z,15.93
2023-08-15T01:32:03.649Z,15.91
2023-08-15T01:34:36.232Z,15.89
2023-08-15T01:37:09.355Z,15.89
2023-08-15T01:39:40.757Z,15.89
2023-08-15T01:42:10.265Z,15.91
2023-08-15T01:44:39.242Z,15.90
2023-08-15T01:47:07.414Z,15.92
2023-08-15T01:49:35.358Z,15.92
2023-08-15T01:52:03.466Z,15.94
2023-08-15T01:54:31.812Z,15.95
2023-08-15T01:57:01.078Z,15.96
2023-08-15T01:59:29.110Z,15.97
2023-08-15T02:01:57.090Z,15.94
2023-08-15T02:04:25.125Z,15.98
2023-08-15T02:06:53.120Z,15.99
2023-08-15T02:09:21.070Z,16.03
2023-08-15T02:11:49.039Z,16.04
2023-08-15T02:14:18.393Z,16.02
2023-08-15T02:16:46.398Z,16.05
2023-08-15T02:19:17.300Z,16.06
2023-08-15T02:21:45.269Z,16.07
2023-08-15T02:24:13.163Z,16.07
2023-08-15T02:26:41.122Z,16.09
2023-08-15T02:29:09.083Z,16.11
2023-08-15T02:31:45.268Z,16.13
2023-08-15T02:34:13.122Z,16.16
2023-08-15T02:36:41.056Z,16.17
2023-08-15T02:39:09.229Z,16.16
2023-08-15T02:41:37.196Z,16.17
2023-08-15T02:44:05.395Z,16.18
2023-08-15T02:46:33.388Z,16.19
2023-08-15T02:49:02.688Z,16.20
2023-08-15T02:51:30.686Z,16.22
2023-08-15T02:53:58.617Z,16.24
2023-08-15T02:56:26.684Z,16.24
2023-08-15T02:58:55.393Z,16.25
2023-08-15T03:01:24.502Z,16.24
2023-08-15T03:03:52.449Z,16.24
2023-08-15T03:06:21.717Z,16.24
2023-08-15T03:08:49.680Z,16.23
2023-08-15T03:11:17.735Z,16.24
2023-08-15T03:13:45.798Z,16.25
2023-08-15T03:16:14.092Z,16.25
2023-08-15T03:18:42.050Z,16.24
2023-08-15T03:21:10.380Z,16.22
2023-08-15T03:23:40.147Z,16.18
2023-08-15T03:26:08.597Z,16.15
2023-08-15T03:28:37.457Z,16.13
2023-08-15T03:31:07.061Z,16.13
2023-08-15T03:33:35.460Z,16.10
2023-08-15T03:36:03.880Z,16.07
2023-08-15T03:38:31.797Z,16.04
2023-08-15T03:41:04.994Z,16.02
2023-08-15T03:43:32.991Z,16.04
2023-08-15T03:46:02.921Z,16.04
2023-08-15T03:48:32.173Z,16.05
2023-08-15T03:51:01.330Z,16.03
2023-08-15T03:53:29.476Z,16.05
2023-08-15T03:55:57.683Z,16.06
2023-08-15T03:58:26.927Z,16.11
2023-08-15T04:00:54.839Z,16.13
2023-08-15T04:03:22.773Z,16.14
2023-08-15T04:05:51.860Z,16.15
2023-08-15T04:08:19.892Z,16.18
2023-08-15T04:10:48.205Z,16.20
2023-08-15T04:13:16.800Z,16.21
2023-08-15T04:15:46.162Z,16.24
2023-08-15T04:18:14.293Z,16.26
2023-08-15T04:20:43.709Z,16.27
2023-08-15T04:23:12.383Z,16.29
2023-08-15T04:25:41.530Z,16.30
2023-08-15T04:28:09.560Z,16.30
2023-08-15T04:30:37.714Z,16.32
2023-08-15T04:33:07.368Z,16.34
2023-08-15T04:35:35.364Z,16.36
2023-08-15T04:38:03.338Z,16.38
2023-08-15T04:40:33.159Z,16.42
2023-08-15T04:43:01.140Z,16.43
2023-08-15T04:45:29.449Z,16.44
2023-08-15T04:47:57.454Z,16.44
2023-08-15T04:50:27.050Z,16.45
2023-08-15T04:52:55.155Z,16.48
2023-08-15T04:55:23.334Z,16.53
2023-08-15T04:57:51.222Z,16.57
2023-08-15T05:00:20.606Z,16.60
2023-08-15T05:02:49.059Z,16.64
2023-08-15T05:05:17.530Z,16.65
2023-08-15T05:07:46.954Z,16.69
2023-08-15T05:10:15.016Z,16.71
2023-08-15T05:12:42.896Z,16.73
2023-08-15T05:15:11.166Z,16.76
2023-08-15T05:17:39.188Z,16.78
2023-08-15T05:20:09.014Z,16.82
2023-08-15T05:22:36.990Z,16.84
2023-08-15T05:25:06.950Z,16.87
2023-08-15T05:27:34.926Z,16.90
2023-08-15T05:30:02.947Z,16.95
2023-08-15T05:32:31.005Z,16.98
2023-08-15T05:34:58.970Z,17.02
2023-08-15T05:37:26.935Z,17.05
2023-08-15T05:39:54.869Z,17.08
2023-08-15T05:42:24.408Z,17.11
2023-08-15T05:44:52.302Z,17.14
2023-08-15T05:47:22.017Z,17.16
2023-08-15T05:49:50.224Z,17.19
2023-08-15T05:52:18.122Z,17.23
2023-08-15T05:54:46.358Z,17.28
2023-08-15T05:57:14.354Z,17.33
2023-08-15T05:59:43.792Z,17.39
2023-08-15T06:02:12.642Z,17.44
2023-08-15T06:04:40.873Z,17.49
2023-08-15T06:07:08.874Z,17.55
2023-08-15T06:09:37.230Z,17.63
2023-08-15T06:12:05.942Z,17.75
2023-08-15T06:14:33.984Z,17.88
2023-08-15T06:17:03.526Z,18.04
2023-08-15T06:19:31.480Z,18.22
2023-08-15T06:21:59.506Z,18.25
2023-08-15T06:24:27.605Z,18.30
2023-08-15T06:26:55.456Z,18.35
2023-08-15T06:29:23.588Z,18.39
2023-08-15T06:31:51.669Z,18.41
2023-08-15T06:34:20.936Z,18.45
2023-08-15T06:36:48.859Z,18.49
2023-08-15T06:39:16.828Z,18.52
2023-08-15T06:41:44.796Z,18.56
2023-08-15T06:44:12.714Z,18.59
2023-08-15T06:46:40.658Z,18.61
2023-08-15T06:49:08.635Z,18.63
2023-08-15T06:51:38.048Z,18.66
2023-08-15T06:54:06.541Z,18.71
2023-08-15T06:56:34.472Z,18.76
2023-08-15T06:59:02.418Z,18.81
2023-08-15T07:01:30.814Z,18.86
2023-08-15T07:03:58.994Z,18.95
2023-08-15T07:06:26.949Z,19.00
2023-08-15T07:08:56.985Z,19.07
2023-08-15T07:11:25.412Z,19.15
2023-08-15T07:13:53.360Z,19.22
2023-08-15T07:16:23.008Z,19.29
2023-08-15T07:21:24.360Z,19.43
2023-08-15T07:23:52.587Z,19.52
2023-08-15T07:26:21.949Z,19.60
2023-08-15T07:28:49.862Z,19.69
2023-08-15T07:31:17.974Z,19.75
2023-08-15T07:33:46.137Z,19.84
2023-08-15T07:36:14.115Z,19.89
2023-08-15T07:38:41.987Z,19.89
2023-08-15T07:41:09.975Z,20.02
2023-08-15T07:43:39.383Z,20.08
2023-08-15T07:46:07.339Z,20.28
2023-08-15T07:48:35.403Z,20.35
2023-08-15T07:51:03.368Z,20.48
2023-08-15T07:53:31.425Z,20.53
2023-08-15T07:55:59.574Z,20.60
2023-08-15T07:58:27.555Z,20.51
2023-08-15T08:00:57.057Z,20.53
2023-08-15T08:03:25.103Z,20.66
2023-08-15T08:05:53.057Z,20.77
2023-08-15T08:08:21.022Z,20.96
2023-08-15T08:10:49.076Z,21.13
2023-08-15T08:13:20.433Z,21.28
2023-08-15T08:15:48.660Z,21.43
2023-08-15T08:18:18.234Z,21.49
2023-08-15T08:20:46.626Z,21.60
2023-08-15T08:23:15.102Z,21.72
2023-08-15T08:25:43.269Z,21.72
2023-08-15T08:28:11.374Z,21.77
2023-08-15T08:30:39.398Z,21.76
2023-08-15T08:33:07.538Z,21.80
2023-08-15T08:35:36.854Z,21.89
2023-08-15T08:38:05.077Z,22.01
2023-08-15T08:40:33.140Z,22.04
2023-08-15T08:43:01.210Z,22.02
2023-08-15T08:45:32.106Z,22.03
2023-08-15T08:48:00.615Z,22.02
2023-08-15T08:50:30.364Z,22.07
2023-08-15T08:52:59.705Z,22.07
2023-08-15T08:55:29.690Z,22.05
2023-08-15T08:58:00.985Z,22.07
2023-08-15T09:00:32.943Z,22.13
2023-08-15T09:03:01.160Z,22.13
2023-08-15T09:05:29.772Z,22.21
2023-08-15T09:08:00.036Z,22.29
2023-08-15T09:10:28.118Z,22.30
2023-08-15T09:13:00.555Z,22.31
2023-08-15T09:15:30.117Z,22.40
2023-08-15T09:18:01.788Z,22.53
2023-08-15T09:20:30.024Z,22.58
2023-08-15T09:23:01.029Z,22.59
2023-08-15T09:25:31.143Z,22.64
2023-08-15T09:27:59.113Z,22.74
2023-08-15T09:30:27.315Z,22.84
2023-08-15T09:32:55.284Z,22.91
2023-08-15T09:35:23.273Z,22.91
2023-08-15T09:37:53.156Z,22.94
2023-08-15T09:40:25.524Z,22.98
2023-08-15T09:42:54.158Z,22.93
2023-08-15T09:45:23.172Z,22.89
2023-08-15T09:47:51.214Z,23.05
2023-08-15T09:50:19.289Z,23.11
2023-08-15T09:52:52.587Z,23.18
2023-08-15T09:55:22.588Z,23.25
2023-08-15T09:57:52.212Z,23.22
2023-08-15T10:00:21.542Z,23.20
2023-08-15T10:02:56.045Z,23.25
2023-08-15T10:05:26.503Z,23.30
2023-08-15T10:07:54.344Z,23.28
2023-08-15T10:10:23.936Z,23.31
2023-08-15T10:12:53.035Z,23.38
2023-08-15T10:15:23.311Z,23.42
2023-08-15T10:17:51.920Z,23.42
2023-08-15T10:20:23.433Z,23.41
2023-08-15T10:22:52.956Z,23.39
2023-08-15T10:25:34.977Z,23.42
2023-08-15T10:28:06.827Z,23.43
2023-08-15T10:30:37.447Z,23.42
2023-08-15T10:33:16.897Z,23.54
2023-08-15T10:35:51.669Z,23.57
2023-08-15T10:38:22.060Z,23.48
2023-08-15T10:40:53.746Z,23.52
2023-08-15T10:43:26.142Z,23.64
2023-08-15T10:45:54.666Z,23.69
2023-08-15T10:48:47.097Z,23.75
2023-08-15T10:51:20.755Z,23.78
2023-08-15T10:53:49.756Z,23.75
2023-08-15T10:56:22.916Z,23.65
2023-08-15T10:58:51.732Z,23.64
2023-08-15T11:01:20.350Z,23.58
2023-08-15T11:03:49.606Z,23.56
2023-08-15T11:06:17.977Z,23.59
2023-08-15T11:08:48.393Z,23.66
2023-08-15T11:11:16.324Z,23.77
2023-08-15T11:13:47.443Z,23.94
2023-08-15T11:16:17.486Z,24.02
2023-08-15T11:18:46.421Z,23.88
2023-08-15T11:21:15.726Z,23.89
2023-08-15T11:23:44.337Z,23.93
2023-08-15T11:26:15.413Z,23.96
2023-08-15T11:28:44.994Z,23.94
2023-08-15T11:33:46.132Z,24.02
2023-08-15T11:36:14.128Z,24.02
2023-08-15T11:38:42.052Z,24.02
2023-08-15T11:41:10.142Z,23.98
2023-08-15T11:43:38.141Z,23.99
2023-08-15T11:46:08.097Z,23.95
2023-08-15T11:48:36.802Z,23.91
2023-08-15T11:51:06.750Z,23.86
2023-08-15T11:53:34.869Z,23.79
2023-08-15T11:56:02.810Z,23.69
2023-08-15T11:58:31.570Z,23.67
2023-08-15T12:01:03.217Z,23.66
2023-08-15T12:03:33.276Z,23.70
2023-08-15T12:06:02.783Z,23.75
2023-08-15T12:08:31.728Z,23.77
2023-08-15T12:11:01.834Z,23.79
2023-08-15T12:13:33.488Z,23.83
2023-08-15T12:16:02.968Z,23.82
2023-08-15T12:18:33.352Z,23.73
2023-08-15T12:21:01.747Z,23.77
2023-08-15T12:23:29.989Z,23.75
2023-08-15T12:25:58.303Z,23.79
2023-08-15T12:28:29.439Z,23.82
2023-08-15T12:30:57.784Z,23.73
2023-08-15T12:33:40.851Z,23.86
2023-08-15T12:36:15.758Z,23.85
2023-08-15T12:38:44.355Z,23.84
2023-08-15T12:41:14.983Z,23.93
2023-08-15T12:43:43.568Z,23.99
2023-08-15T12:46:11.822Z,24.03
2023-08-15T12:48:39.993Z,23.99
2023-08-15T12:51:07.869Z,24.01
2023-08-15T12:53:37.196Z,23.98
2023-08-15T12:56:06.268Z,23.97
2023-08-15T12:58:34.295Z,23.97
2023-08-15T13:01:02.703Z,23.97
2023-08-15T13:03:31.926Z,23.94
2023-08-15T13:06:00.180Z,23.94
2023-08-15T13:08:28.205Z,23.91
2023-08-15T13:10:58.584Z,23.88
2023-08-15T13:13:26.819Z,23.83
2023-08-15T13:15:54.757Z,23.82
2023-08-15T13:18:23.013Z,23.83
2023-08-15T13:20:51.017Z,23.90
2023-08-15T13:23:18.984Z,23.97
2023-08-15T13:25:47.070Z,24.06
2023-08-15T13:28:16.333Z,24.09
2023-08-15T13:30:45.254Z,24.07
2023-08-15T13:33:13.289Z,24.04
2023-08-15T13:35:42.121Z,24.02
2023-08-15T13:38:10.777Z,23.96
2023-08-15T13:40:38.856Z,23.93
2023-08-15T13:43:07.104Z,23.90
2023-08-15T13:45:36.457Z,23.86
2023-08-15T13:48:04.875Z,23.83
2023-08-15T13:50:32.857Z,23.78
2023-08-15T13:53:00.712Z,23.74
2023-08-15T13:55:28.663Z,23.69
2023-08-15T13:57:56.624Z,23.64
2023-08-15T14:00:24.740Z,23.59
2023-08-15T14:02:54.131Z,23.56
2023-08-15T14:05:22.448Z,23.47
2023-08-15T14:07:50.343Z,23.37
2023-08-15T14:10:18.582Z,23.28
2023-08-15T14:12:46.477Z,23.15
2023-08-15T14:15:14.358Z,23.00
2023-08-15T14:17:42.373Z,22.90
2023-08-15T14:20:12.605Z,22.82
2023-08-15T14:22:40.653Z,22.71
2023-08-15T14:25:09.712Z,22.64
2023-08-15T14:27:37.699Z,22.60
2023-08-15T14:30:06.806Z,22.50
2023-08-15T14:32:34.797Z,22.39
2023-08-15T14:35:02.883Z,22.33
2023-08-15T14:37:32.347Z,22.26
2023-08-15T14:40:00.310Z,22.21
2023-08-15T14:42:28.977Z,22.18
2023-08-15T14:44:57.068Z,22.14
2023-08-15T14:47:29.435Z,22.14
2023-08-15T14:49:57.881Z,22.13
2023-08-15T14:52:27.248Z,22.17
2023-08-15T14:54:57.222Z,22.16
2023-08-15T14:57:25.564Z,22.20
2023-08-15T14:59:54.252Z,22.20
2023-08-15T15:02:24.970Z,22.15
2023-08-15T15:04:53.579Z,22.14
2023-08-15T15:07:21.473Z,22.15
2023-08-15T15:09:49.579Z,22.12
2023-08-15T15:12:19.219Z,22.06
2023-08-15T15:14:47.114Z,22.04
2023-08-15T15:17:15.006Z,22.00
2023-08-15T15:19:42.941Z,21.95
2023-08-15T15:22:10.985Z,21.91
2023-08-15T15:24:38.936Z,21.87
2023-08-15T15:27:07.194Z,21.83
2023-08-15T15:29:36.720Z,21.79
2023-08-15T15:32:05.408Z,21.73
2023-08-15T15:34:33.359Z,21.70
2023-08-15T15:37:01.252Z,21.64
2023-08-15T15:39:29.612Z,21.60
2023-08-15T15:41:57.787Z,21.58
2023-08-15T15:44:26.212Z,21.54
2023-08-15T15:46:55.886Z,21.51
2023-08-15T15:49:24.231Z,21.47
2023-08-15T15:51:52.252Z,21.44
2023-08-15T15:54:20.417Z,21.40
2023-08-15T15:56:48.355Z,21.35
2023-08-15T15:59:16.264Z,21.34
2023-08-15T16:01:44.244Z,21.29
2023-08-15T16:04:13.905Z,21.22
2023-08-15T16:06:41.933Z,21.12
2023-08-15T16:09:09.865Z,21.07
2023-08-15T16:11:37.812Z,20.97
2023-08-15T16:14:06.175Z,20.90
2023-08-15T16:16:34.192Z,20.78
2023-08-15T16:19:02.097Z,20.66
2023-08-15T16:21:32.641Z,20.63
2023-08-15T16:24:00.308Z,20.53
2023-08-15T16:26:28.357Z,20.51
2023-08-15T16:28:56.402Z,20.49
2023-08-15T16:31:26.427Z,20.48
2023-08-15T16:33:54.578Z,20.42
2023-08-15T16:36:22.477Z,20.44
2023-08-15T16:38:52.020Z,20.42
2023-08-15T16:41:20.034Z,20.42
2023-08-15T16:43:49.266Z,20.42
2023-08-15T16:46:17.609Z,20.42
2023-08-15T16:48:46.134Z,20.41
2023-08-15T16:51:14.523Z,20.39
2023-08-15T16:53:42.470Z,20.36
2023-08-15T16:56:11.907Z,20.32
2023-08-15T16:58:39.782Z,20.29
2023-08-15T17:01:07.808Z,20.29
2023-08-15T17:03:35.984Z,20.28
2023-08-15T17:06:04.144Z,20.28
2023-08-15T17:08:32.446Z,20.27
2023-08-15T17:11:00.481Z,20.30
2023-08-15T17:13:29.833Z,20.28
2023-08-15T17:15:57.724Z,20.26
2023-08-15T17:18:25.725Z,20.25
2023-08-15T17:20:54.438Z,20.22
2023-08-15T17:23:22.459Z,20.21
2023-08-15T17:25:50.441Z,20.21
2023-08-15T17:28:18.485Z,20.20
2023-08-15T17:30:47.795Z,20.17
2023-08-15T17:33:15.858Z,20.13
2023-08-15T17:35:45.354Z,20.08
2023-08-15T17:38:13.420Z,20.05
2023-08-15T17:40:41.302Z,20.01
2023-08-15T17:43:09.713Z,19.99
2023-08-15T17:45:39.672Z,19.98
2023-08-15T17:48:09.941Z,19.91
2023-08-15T17:50:37.776Z,19.78
2023-08-15T17:53:06.036Z,19.77
2023-08-15T17:55:34.043Z,19.77
2023-08-15T17:58:02.016Z,19.79
2023-08-15T18:00:30.523Z,19.80
2023-08-15T18:02:58.775Z,19.79
2023-08-15T18:05:28.463Z,19.78
2023-08-15T18:07:56.421Z,19.77
2023-08-15T18:10:24.406Z,19.77
2023-08-15T18:12:52.426Z,19.77
2023-08-15T18:15:20.481Z,19.75
2023-08-15T18:17:49.980Z,19.73
2023-08-15T18:20:18.128Z,19.70
2023-08-15T18:22:47.460Z,19.68
2023-08-15T18:25:15.813Z,19.66
2023-08-15T18:27:43.706Z,19.64
2023-08-15T18:30:12.818Z,19.62
2023-08-15T18:32:41.084Z,19.59
2023-08-15T18:35:10.090Z,19.57
2023-08-15T18:37:39.107Z,19.52
2023-08-15T18:40:10.890Z,19.45
2023-08-15T18:42:38.833Z,19.35
2023-08-15T18:45:07.716Z,19.32
2023-08-15T18:47:35.724Z,19.28
2023-08-15T18:50:03.867Z,19.20
2023-08-15T18:52:31.736Z,19.17
2023-08-15T18:54:59.948Z,19.17
2023-08-15T18:57:29.574Z,19.16
2023-08-15T18:59:57.745Z,19.15
2023-08-15T19:02:25.940Z,19.15
2023-08-15T19:04:59.155Z,19.15
2023-08-15T19:07:27.232Z,19.13
2023-08-15T19:09:55.690Z,19.11
2023-08-15T19:12:23.864Z,19.09
2023-08-15T19:14:53.933Z,19.09
2023-08-15T19:17:21.881Z,19.08
2023-08-15T19:19:52.763Z,19.05
2023-08-15T19:22:20.972Z,19.02
2023-08-15T19:24:49.198Z,19.00
2023-08-15T19:27:17.279Z,18.98
2023-08-15T19:29:45.323Z,19.00
2023-08-15T19:32:14.789Z,18.98
2023-08-15T19:34:49.227Z,18.97
2023-08-15T19:37:27.080Z,18.96
2023-08-15T19:40:03.310Z,18.95
2023-08-15T19:42:31.314Z,18.92
2023-08-15T19:44:59.331Z,18.88
2023-08-15T19:47:28.998Z,18.84
2023-08-15T19:49:56.938Z,18.81
2023-08-15T19:52:26.443Z,18.80
2023-08-15T19:54:54.732Z,18.75
2023-08-15T19:57:23.123Z,18.75
2023-08-15T19:59:51.125Z,18.72
2023-08-15T20:02:21.609Z,18.66
2023-08-15T20:04:51.709Z,18.65
2023-08-15T20:07:20.199Z,18.65
2023-08-15T20:09:59.365Z,18.63
2023-08-15T20:12:36.174Z,18.62
2023-08-15T20:15:04.247Z,18.63
2023-08-15T20:17:32.215Z,18.63
2023-08-15T20:20:02.182Z,18.63
2023-08-15T20:22:30.155Z,18.60
2023-08-15T20:24:58.551Z,18.61
2023-08-15T20:27:26.530Z,18.61
2023-08-15T20:29:57.642Z,18.61
2023-08-15T20:32:26.744Z,18.60
2023-08-15T20:34:55.118Z,18.60
2023-08-15T20:37:24.871Z,18.60
2023-08-15T20:39:52.864Z,18.62
2023-08-15T20:42:21.255Z,18.64
2023-08-15T20:44:49.605Z,18.65
2023-08-15T20:47:17.606Z,18.65
2023-08-15T20:49:45.502Z,18.65
2023-08-15T20:52:13.479Z,18.67
2023-08-15T20:54:42.791Z,18.66
2023-08-15T20:57:10.716Z,18.67
2023-08-15T20:59:38.563Z,18.68
2023-08-15T21:02:06.733Z,18.67
2023-08-15T21:04:34.756Z,18.67
2023-08-15T21:07:03.155Z,18.68
2023-08-15T21:09:31.301Z,18.70
2023-08-15T21:12:00.797Z,18.70
2023-08-15T21:14:28.806Z,18.70
2023-08-15T21:16:56.859Z,18.70
2023-08-15T21:19:24.729Z,18.71
2023-08-15T21:21:52.614Z,18.73
2023-08-15T21:24:20.656Z,18.74
2023-08-15T21:26:48.552Z,18.74
2023-08-15T21:29:17.854Z,18.72
2023-08-15T21:31:45.793Z,18.75
2023-08-15T21:34:13.937Z,18.76
2023-08-15T21:36:41.890Z,18.75
2023-08-15T21:39:09.855Z,18.73
2023-08-15T21:41:37.912Z,18.76
2023-08-15T21:44:05.994Z,18.74
2023-08-15T21:46:35.436Z,18.75
2023-08-15T21:49:03.465Z,18.76
2023-08-15T21:51:31.391Z,18.75
2023-08-15T21:53:59.294Z,18.75
2023-08-15T21:56:28.996Z,18.75
2023-08-15T21:58:59.134Z,18.75
2023-08-15T22:01:27.184Z,18.75
2023-08-15T22:03:56.626Z,18.75
2023-08-15T22:06:25.112Z,18.77
2023-08-15T22:08:53.005Z,18.76
2023-08-15T22:11:23.098Z,18.78
2023-08-15T22:13:52.151Z,18.77
2023-08-15T22:16:20.228Z,18.78
2023-08-15T22:18:48.172Z,18.78
2023-08-15T22:21:17.568Z,18.77
2023-08-15T22:23:46.548Z,18.77
2023-08-15T22:26:14.759Z,18.76
2023-08-15T22:28:43.115Z,18.74
2023-08-15T22:31:11.156Z,18.74
2023-08-15T22:33:39.196Z,18.74
2023-08-15T22:36:07.216Z,18.74
2023-08-15T22:38:36.767Z,18.74
2023-08-15T22:41:04.697Z,18.73
2023-08-15T22:43:32.656Z,18.73
2023-08-15T22:46:00.733Z,18.73
2023-08-15T22:48:28.678Z,18.73
2023-08-15T22:50:56.560Z,18.72
2023-08-15T22:53:24.615Z,18.72
2023-08-15T22:55:58.945Z,18.71
2023-08-15T22:58:26.859Z,18.71
2023-08-15T23:00:56.610Z,18.72
2023-08-15T23:03:25.821Z,18.72
2023-08-15T23:05:53.684Z,18.70
2023-08-15T23:08:21.681Z,18.70
2023-08-15T23:10:54.827Z,18.69
2023-08-15T23:13:23.123Z,18.69
2023-08-15T23:15:51.308Z,18.68
2023-08-15T23:18:19.396Z,18.68
2023-08-15T23:20:47.328Z,18.67
2023-08-15T23:23:15.902Z,18.66
2023-08-15T23:25:43.773Z,18.66
2023-08-15T23:28:13.296Z,18.65
2023-08-15T23:30:41.260Z,18.65
2023-08-15T23:33:09.622Z,18.63
2023-08-15T23:35:37.603Z,18.63
2023-08-15T23:38:05.876Z,18.62
2023-08-15T23:40:34.109Z,18.62
2023-08-15T23:43:02.065Z,18.61
2023-08-15T23:45:32.966Z,18.60
2023-08-15T23:48:00.966Z,18.59
2023-08-15T23:50:29.595Z,18.60
2023-08-15T23:52:57.982Z,18.56
2023-08-15T23:55:25.891Z,18.57
2023-08-15T23:57:54.159Z,18.58
